createdAt,value
2022-10-21T00:01:22.251Z,11.00
2022-10-21T00:03:51.993Z,10.90
2022-10-21T00:06:22.999Z,10.90
2022-10-21T00:08:55.374Z,10.90
2022-10-21T00:11:25.347Z,10.90
2022-10-21T00:13:56.229Z,10.80
2022-10-21T00:16:28.702Z,10.80
2022-10-21T00:19:00.022Z,10.70
2022-10-21T00:21:29.850Z,10.70
2022-10-21T00:23:58.693Z,10.70
2022-10-21T00:26:28.832Z,10.60
2022-10-21T00:28:59.539Z,10.60
2022-10-21T00:31:30.651Z,10.60
2022-10-21T00:33:59.762Z,10.50
2022-10-21T00:36:32.092Z,10.60
2022-10-21T00:39:02.011Z,10.50
2022-10-21T00:41:30.872Z,10.50
2022-10-21T00:44:08.141Z,10.40
2022-10-21T00:46:42.564Z,10.40
2022-10-21T00:49:23.301Z,10.30
2022-10-21T00:51:58.361Z,10.30
2022-10-21T00:54:31.582Z,10.20
2022-10-21T00:57:01.102Z,10.20
2022-10-21T00:59:42.251Z,10.20
2022-10-21T01:02:12.244Z,10.10
2022-10-21T01:04:42.024Z,10.20
2022-10-21T01:07:11.541Z,10.10
2022-10-21T01:09:42.282Z,10.10
2022-10-21T01:12:22.480Z,10.20
2022-10-21T01:17:47.604Z,10.10
2022-10-21T01:20:56.488Z,10.20
2022-10-21T01:27:09.497Z,10.20
2022-10-21T01:30:12.792Z,10.10
2022-10-21T01:32:59.476Z,10.10
2022-10-21T01:35:36.221Z,10.20
2022-10-21T01:38:17.234Z,10.20
2022-10-21T01:40:56.102Z,10.20
2022-10-21T01:43:40.103Z,10.20
2022-10-21T01:46:14.861Z,10.30
2022-10-21T01:48:51.789Z,10.30
2022-10-21T01:54:00.582Z,10.20
2022-10-21T01:56:30.975Z,10.20
2022-10-21T01:59:05.912Z,10.20
2022-10-21T02:01:38.489Z,10.30
2022-10-21T02:04:14.311Z,10.30
2022-10-21T02:06:45.611Z,10.30
2022-10-21T02:09:14.872Z,10.20
2022-10-21T02:11:50.859Z,10.30
2022-10-21T02:14:24.953Z,10.30
2022-10-21T02:16:55.422Z,10.30
2022-10-21T02:19:27.471Z,10.30
2022-10-21T02:22:01.192Z,10.40
2022-10-21T02:24:47.482Z,10.40
2022-10-21T02:27:16.912Z,10.30
2022-10-21T02:29:49.803Z,10.30
2022-10-21T02:32:30.963Z,10.30
2022-10-21T02:35:17.482Z,10.40
2022-10-21T02:38:00.458Z,10.50
2022-10-21T02:40:35.541Z,10.40
2022-10-21T02:43:10.891Z,10.50
2022-10-21T02:45:41.852Z,10.60
2022-10-21T02:48:13.011Z,10.60
2022-10-21T02:50:44.930Z,10.60
2022-10-21T02:53:15.553Z,10.70
2022-10-21T02:55:47.460Z,10.70
2022-10-21T02:58:18.777Z,10.70
2022-10-21T03:00:49.566Z,10.80
2022-10-21T03:03:20.821Z,10.80
2022-10-21T03:05:55.982Z,10.90
2022-10-21T03:08:26.943Z,10.90
2022-10-21T03:10:56.809Z,10.90
2022-10-21T03:13:25.951Z,10.90
2022-10-21T03:15:55.522Z,11.00
2022-10-21T03:18:25.714Z,11.00
2022-10-21T03:20:58.522Z,11.00
2022-10-21T03:23:28.882Z,11.00
2022-10-21T03:25:59.954Z,11.00
2022-10-21T03:28:30.951Z,11.00
2022-10-21T03:31:02.305Z,11.00
2022-10-21T03:33:34.430Z,11.00
2022-10-21T03:36:10.553Z,11.10
2022-10-21T03:38:41.533Z,11.10
2022-10-21T03:41:13.807Z,11.10
2022-10-21T03:43:43.513Z,11.10
2022-10-21T03:46:14.900Z,11.10
2022-10-21T03:48:44.990Z,11.20
2022-10-21T03:51:17.592Z,11.20
2022-10-21T03:53:47.391Z,11.20
2022-10-21T03:56:19.021Z,11.20
2022-10-21T03:58:52.971Z,11.20
2022-10-21T04:01:26.164Z,11.20
2022-10-21T04:03:57.910Z,11.10
2022-10-21T04:06:28.743Z,11.10
2022-10-21T04:08:58.833Z,11.10
2022-10-21T04:11:30.500Z,11.10
2022-10-21T04:14:00.053Z,11.10
2022-10-21T04:16:28.852Z,11.10
2022-10-21T04:18:58.752Z,11.10
2022-10-21T04:21:30.633Z,11.10
2022-10-21T04:24:00.501Z,11.00
2022-10-21T04:26:31.910Z,11.00
2022-10-21T04:29:04.512Z,10.90
2022-10-21T04:31:34.832Z,10.90
2022-10-21T04:34:04.593Z,10.80
2022-10-21T04:36:36.134Z,10.80
2022-10-21T04:39:07.672Z,10.80
2022-10-21T04:41:37.583Z,10.70
2022-10-21T04:44:09.402Z,10.70
2022-10-21T04:46:40.173Z,10.70
2022-10-21T04:49:11.100Z,10.70
2022-10-21T04:51:47.602Z,10.70
2022-10-21T04:54:19.330Z,10.60
2022-10-21T04:56:51.481Z,10.50
2022-10-21T04:59:22.429Z,10.50
2022-10-21T05:01:52.658Z,10.50
2022-10-21T05:04:22.033Z,10.50
2022-10-21T05:06:54.493Z,10.50
2022-10-21T05:09:24.211Z,10.50
2022-10-21T05:11:52.993Z,10.60
2022-10-21T05:14:24.733Z,10.60
2022-10-21T05:17:04.352Z,10.50
2022-10-21T05:19:34.022Z,10.50
2022-10-21T05:22:06.451Z,10.50
2022-10-21T05:24:38.643Z,10.50
2022-10-21T05:27:09.705Z,10.50
2022-10-21T05:29:40.984Z,10.50
2022-10-21T05:32:10.783Z,10.50
2022-10-21T05:34:48.512Z,10.50
2022-10-21T05:37:24.997Z,10.50
2022-10-21T05:39:56.219Z,10.50
2022-10-21T05:42:31.139Z,10.50
2022-10-21T05:45:01.924Z,10.50
2022-10-21T05:47:31.544Z,10.50
2022-10-21T05:50:01.151Z,10.50
2022-10-21T05:52:36.029Z,10.50
2022-10-21T05:55:09.052Z,10.40
2022-10-21T05:57:41.021Z,10.40
2022-10-21T06:00:11.212Z,10.50
2022-10-21T06:02:43.461Z,10.50
2022-10-21T06:05:12.845Z,10.50
2022-10-21T06:07:44.435Z,10.50
2022-10-21T06:10:17.183Z,10.50
2022-10-21T06:12:49.560Z,10.50
2022-10-21T06:15:18.462Z,10.60
2022-10-21T06:17:51.695Z,10.60
2022-10-21T06:20:21.012Z,10.60
2022-10-21T06:22:55.282Z,10.60
2022-10-21T06:25:24.766Z,10.60
2022-10-21T06:27:57.372Z,10.60
2022-10-21T06:30:27.153Z,10.70
2022-10-21T06:32:56.958Z,10.70
2022-10-21T06:35:25.784Z,10.70
2022-10-21T06:37:58.186Z,10.70
2022-10-21T06:40:29.119Z,10.80
2022-10-21T06:42:58.833Z,10.80
2022-10-21T06:45:30.459Z,10.90
2022-10-21T06:48:00.102Z,10.90
2022-10-21T06:50:29.549Z,10.90
2022-10-21T06:53:00.694Z,10.90
2022-10-21T06:55:32.553Z,11.00
2022-10-21T06:58:02.771Z,11.10
2022-10-21T07:00:40.681Z,11.10
2022-10-21T07:03:09.189Z,11.20
2022-10-21T07:05:42.110Z,11.20
2022-10-21T07:08:15.812Z,11.30
2022-10-21T07:10:46.157Z,11.30
2022-10-21T07:13:22.268Z,11.30
2022-10-21T07:16:03.291Z,11.30
2022-10-21T07:18:33.573Z,11.40
2022-10-21T07:21:07.032Z,11.50
2022-10-21T07:23:40.311Z,11.60
2022-10-21T07:26:12.766Z,11.60
2022-10-21T07:28:47.123Z,11.60
2022-10-21T07:31:18.144Z,11.70
2022-10-21T07:33:48.936Z,11.80
2022-10-21T07:36:24.835Z,11.80
2022-10-21T07:39:09.027Z,11.90
2022-10-21T07:41:42.236Z,12.00
2022-10-21T07:44:13.035Z,12.10
2022-10-21T07:46:42.947Z,12.20
2022-10-21T07:49:16.619Z,12.20
2022-10-21T07:51:49.392Z,12.30
2022-10-21T07:54:22.167Z,12.40
2022-10-21T07:56:53.022Z,12.50
2022-10-21T07:59:27.393Z,12.60
2022-10-21T08:01:59.031Z,12.70
2022-10-21T08:04:32.255Z,12.80
2022-10-21T08:07:03.732Z,12.80
2022-10-21T08:09:35.302Z,12.80
2022-10-21T08:12:06.535Z,12.90
2022-10-21T08:14:47.356Z,13.00
2022-10-21T08:17:16.893Z,13.20
2022-10-21T08:19:47.737Z,13.20
2022-10-21T08:22:17.072Z,13.30
2022-10-21T08:24:48.553Z,13.30
2022-10-21T08:27:18.203Z,13.40
2022-10-21T08:29:49.032Z,13.60
2022-10-21T08:32:17.883Z,13.70
2022-10-21T08:34:47.552Z,13.80
2022-10-21T08:37:18.435Z,13.90
2022-10-21T08:39:50.533Z,13.90
2022-10-21T08:42:21.672Z,13.90
2022-10-21T08:44:57.092Z,13.80
2022-10-21T08:47:37.110Z,13.80
2022-10-21T08:50:14.373Z,13.70
2022-10-21T08:52:48.674Z,13.70
2022-10-21T08:55:22.473Z,13.70
2022-10-21T08:57:54.791Z,13.70
2022-10-21T09:00:42.161Z,13.70
2022-10-21T09:03:24.316Z,13.70
2022-10-21T09:06:23.687Z,13.70
2022-10-21T09:09:03.436Z,13.80
2022-10-21T09:11:56.463Z,14.00
2022-10-21T09:14:49.427Z,14.30
2022-10-21T09:17:38.232Z,14.50
2022-10-21T09:20:20.933Z,14.80
2022-10-21T09:23:01.974Z,15.10
2022-10-21T09:25:38.448Z,15.20
2022-10-21T09:28:18.022Z,15.40
2022-10-21T09:30:55.842Z,15.40
2022-10-21T09:33:29.352Z,15.60
2022-10-21T09:36:08.826Z,15.90
2022-10-21T09:38:44.965Z,16.20
2022-10-21T09:43:57.269Z,16.40
2022-10-21T09:46:26.241Z,16.50
2022-10-21T09:51:53.601Z,17.30
2022-10-21T09:54:26.157Z,17.30
2022-10-21T09:57:01.938Z,17.10
2022-10-21T09:59:33.898Z,17.00
2022-10-21T10:02:09.442Z,16.90
2022-10-21T10:04:39.011Z,16.90
2022-10-21T10:07:22.732Z,16.90
2022-10-21T10:09:55.984Z,16.70
2022-10-21T10:12:27.048Z,16.60
2022-10-21T10:15:31.628Z,16.50
2022-10-21T10:18:02.120Z,16.20
2022-10-21T10:20:31.313Z,16.10
2022-10-21T10:23:20.565Z,16.10
2022-10-21T10:25:57.572Z,16.00
2022-10-21T10:28:27.731Z,16.00
2022-10-21T10:30:59.674Z,16.00
2022-10-21T10:33:32.801Z,16.20
2022-10-21T10:36:08.538Z,16.60
2022-10-21T10:38:41.762Z,16.60
2022-10-21T10:41:14.023Z,16.90
2022-10-21T10:43:50.624Z,17.10
2022-10-21T10:46:27.204Z,17.50
2022-10-21T10:49:02.344Z,17.70
2022-10-21T10:51:34.716Z,17.90
2022-10-21T10:54:20.921Z,17.90
2022-10-21T10:56:57.772Z,18.20
2022-10-21T10:59:35.552Z,18.30
2022-10-21T11:02:38.831Z,18.20
2022-10-21T11:05:21.709Z,18.20
2022-10-21T11:07:52.971Z,18.00
2022-10-21T11:10:35.869Z,18.10
2022-10-21T11:13:11.652Z,18.30
2022-10-21T11:15:58.037Z,18.40
2022-10-21T11:18:37.009Z,18.40
2022-10-21T11:21:45.193Z,18.50
2022-10-21T11:24:38.416Z,18.60
2022-10-21T11:27:19.123Z,18.50
2022-10-21T11:30:01.008Z,18.10
2022-10-21T11:32:39.662Z,17.90
2022-10-21T11:35:24.821Z,17.70
2022-10-21T11:38:30.364Z,17.60
2022-10-21T11:41:08.838Z,17.60
2022-10-21T11:43:48.161Z,17.50
2022-10-21T11:46:24.020Z,17.60
2022-10-21T11:49:10.494Z,17.70
2022-10-21T11:51:55.758Z,18.00
2022-10-21T11:55:10.317Z,18.50
2022-10-21T11:57:48.192Z,19.00
2022-10-21T12:00:20.696Z,19.50
2022-10-21T12:03:15.081Z,19.70
2022-10-21T12:05:56.272Z,20.00
2022-10-21T12:08:34.387Z,20.10
2022-10-21T12:11:13.458Z,20.10
2022-10-21T12:13:52.155Z,20.00
2022-10-21T12:16:27.458Z,19.80
2022-10-21T12:19:00.343Z,19.70
2022-10-21T12:21:34.467Z,19.70
2022-10-21T12:24:24.135Z,19.60
2022-10-21T12:26:57.832Z,19.60
2022-10-21T12:29:48.461Z,19.50
2022-10-21T12:32:30.414Z,19.50
2022-10-21T12:35:10.041Z,19.60
2022-10-21T12:38:13.847Z,19.50
2022-10-21T12:40:48.132Z,19.70
2022-10-21T12:43:32.458Z,19.90
2022-10-21T12:46:09.555Z,19.90
2022-10-21T12:48:45.383Z,19.90
2022-10-21T12:51:28.581Z,19.70
2022-10-21T12:54:11.041Z,19.90
2022-10-21T12:56:47.264Z,21.00
2022-10-21T12:59:39.966Z,21.90
2022-10-21T13:02:31.388Z,22.20
2022-10-21T13:05:08.930Z,22.70
2022-10-21T13:07:39.653Z,23.10
2022-10-21T13:10:29.539Z,23.40
2022-10-21T13:13:42.184Z,23.50
2022-10-21T13:16:31.316Z,23.70
2022-10-21T13:19:04.015Z,24.20
2022-10-21T13:21:53.825Z,24.50
2022-10-21T13:24:48.673Z,24.80
2022-10-21T13:27:35.804Z,25.10
2022-10-21T13:30:18.966Z,25.50
2022-10-21T13:33:11.147Z,25.40
2022-10-21T13:35:47.261Z,24.80
2022-10-21T13:38:24.793Z,24.40
2022-10-21T13:41:00.152Z,23.90
2022-10-21T13:43:31.212Z,23.40
2022-10-21T13:46:09.353Z,22.80
2022-10-21T13:48:41.450Z,22.50
2022-10-21T13:51:21.327Z,22.10
2022-10-21T13:53:53.542Z,21.80
2022-10-21T13:56:27.650Z,21.40
2022-10-21T13:58:59.251Z,21.10
2022-10-21T14:01:48.421Z,20.90
2022-10-21T14:04:20.994Z,20.70
2022-10-21T14:06:54.283Z,20.50
2022-10-21T14:09:31.482Z,20.30
2022-10-21T14:12:05.814Z,20.10
2022-10-21T14:14:39.304Z,20.00
2022-10-21T14:21:07.352Z,19.60
2022-10-21T14:23:37.398Z,19.40
2022-10-21T14:26:09.560Z,19.30
2022-10-21T14:28:39.878Z,19.20
2022-10-21T14:31:15.376Z,19.00
2022-10-21T14:33:48.282Z,18.90
2022-10-21T14:36:25.231Z,18.80
2022-10-21T14:38:59.010Z,18.70
2022-10-21T14:41:33.370Z,18.60
2022-10-21T14:44:09.662Z,18.50
2022-10-21T14:46:44.336Z,18.40
2022-10-21T14:49:24.789Z,18.30
2022-10-21T14:52:08.230Z,18.20
2022-10-21T14:54:44.572Z,18.10
2022-10-21T14:57:40.321Z,18.00
2022-10-21T15:00:22.257Z,18.00
2022-10-21T15:02:54.300Z,17.90
2022-10-21T15:05:33.521Z,17.80
2022-10-21T15:08:41.637Z,17.70
2022-10-21T15:11:45.712Z,17.60
2022-10-21T15:14:36.542Z,17.50
2022-10-21T15:17:14.262Z,17.40
2022-10-21T15:19:49.044Z,17.30
2022-10-21T15:22:26.544Z,17.30
2022-10-21T15:25:07.234Z,17.20
2022-10-21T15:27:42.645Z,17.20
2022-10-21T15:30:18.971Z,17.10
2022-10-21T15:32:48.642Z,17.10
2022-10-21T15:35:22.354Z,17.10
2022-10-21T15:37:51.918Z,17.00
2022-10-21T15:40:26.398Z,16.90
2022-10-21T15:43:04.661Z,16.80
2022-10-21T15:45:50.255Z,16.70
2022-10-21T15:48:19.125Z,16.60
2022-10-21T15:50:48.941Z,16.60
2022-10-21T15:53:18.082Z,16.50
2022-10-21T15:56:10.952Z,16.50
2022-10-21T15:58:47.684Z,16.40
2022-10-21T16:01:21.469Z,16.20
2022-10-21T16:03:51.442Z,16.20
2022-10-21T16:06:25.620Z,16.10
2022-10-21T16:08:56.560Z,16.00
2022-10-21T16:11:40.470Z,16.00
2022-10-21T16:14:18.417Z,15.90
2022-10-21T16:16:59.404Z,15.90
2022-10-21T16:19:47.045Z,15.80
2022-10-21T16:22:20.474Z,15.80
2022-10-21T16:24:53.439Z,15.70
2022-10-21T16:27:43.867Z,15.70
2022-10-21T16:30:25.210Z,15.60
2022-10-21T16:33:03.296Z,15.60
2022-10-21T16:35:36.345Z,15.60
2022-10-21T16:38:11.287Z,15.50
2022-10-21T16:41:00.480Z,15.40
2022-10-21T16:44:09.327Z,15.40
2022-10-21T16:46:44.844Z,15.30
2022-10-21T16:49:27.540Z,15.20
2022-10-21T16:52:02.607Z,15.20
2022-10-21T16:54:35.271Z,15.10
2022-10-21T16:57:07.089Z,15.10
2022-10-21T16:59:54.535Z,15.10
2022-10-21T17:02:25.862Z,15.10
2022-10-21T17:05:04.885Z,15.00
2022-10-21T17:07:35.213Z,14.90
2022-10-21T17:10:07.828Z,14.90
2022-10-21T17:12:44.246Z,14.80
2022-10-21T17:15:26.534Z,14.80
2022-10-21T17:17:56.891Z,14.80
2022-10-21T17:20:37.858Z,14.70
2022-10-21T17:23:14.311Z,14.70
2022-10-21T17:25:50.149Z,14.70
2022-10-21T17:28:20.234Z,14.70
2022-10-21T17:30:57.942Z,14.70
2022-10-21T17:33:31.566Z,14.60
2022-10-21T17:36:02.111Z,14.60
2022-10-21T17:38:35.135Z,14.60
2022-10-21T17:41:12.845Z,14.60
2022-10-21T17:43:44.229Z,14.60
2022-10-21T17:46:24.733Z,14.60
2022-10-21T17:48:56.479Z,14.60
2022-10-21T17:51:32.945Z,14.60
2022-10-21T17:54:02.568Z,14.60
2022-10-21T17:56:35.183Z,14.50
2022-10-21T17:59:11.215Z,14.50
2022-10-21T18:01:56.565Z,14.50
2022-10-21T18:04:31.360Z,14.50
2022-10-21T18:07:17.715Z,14.40
2022-10-21T18:09:56.874Z,14.40
2022-10-21T18:12:35.935Z,14.40
2022-10-21T18:15:12.315Z,14.40
2022-10-21T18:18:02.404Z,14.40
2022-10-21T18:20:51.595Z,14.40
2022-10-21T18:23:40.757Z,14.30
2022-10-21T18:26:21.492Z,14.20
2022-10-21T18:29:10.170Z,14.20
2022-10-21T18:31:41.993Z,14.10
2022-10-21T18:34:45.613Z,14.10
2022-10-21T18:37:23.534Z,14.00
2022-10-21T18:40:05.640Z,14.00
2022-10-21T18:42:51.346Z,13.90
2022-10-21T18:45:31.687Z,13.90
2022-10-21T18:48:03.449Z,13.90
2022-10-21T18:50:55.350Z,13.80
2022-10-21T18:53:35.983Z,13.80
2022-10-21T18:56:22.078Z,13.80
2022-10-21T18:59:03.850Z,13.90
2022-10-21T19:01:54.428Z,13.90
2022-10-21T19:04:39.797Z,13.80
2022-10-21T19:07:17.766Z,13.80
2022-10-21T19:09:51.028Z,13.90
2022-10-21T19:12:30.784Z,13.90
2022-10-21T19:15:10.350Z,14.00
2022-10-21T19:17:48.122Z,14.00
2022-10-21T19:20:26.446Z,14.00
2022-10-21T19:23:25.738Z,14.10
2022-10-21T19:25:59.288Z,14.10
2022-10-21T19:28:33.484Z,14.20
2022-10-21T19:31:06.478Z,14.10
2022-10-21T19:33:39.427Z,14.20
2022-10-21T19:36:09.618Z,14.20
2022-10-21T19:38:47.532Z,14.20
2022-10-21T19:41:21.644Z,14.20
2022-10-21T19:43:52.543Z,14.20
2022-10-21T19:46:25.866Z,14.20
2022-10-21T19:49:16.130Z,14.20
2022-10-21T19:51:46.323Z,14.20
2022-10-21T19:54:31.535Z,14.20
2022-10-21T19:59:46.421Z,14.30
2022-10-21T20:02:17.514Z,14.30
2022-10-21T20:04:48.972Z,14.40
2022-10-21T20:07:25.900Z,14.40
2022-10-21T20:09:59.070Z,14.50
2022-10-21T20:12:31.381Z,14.50
2022-10-21T20:15:01.970Z,14.50
2022-10-21T20:20:04.949Z,14.50
2022-10-21T20:22:38.111Z,14.50
2022-10-21T20:25:12.981Z,14.60
2022-10-21T20:27:43.942Z,14.70
2022-10-21T20:30:14.150Z,14.70
2022-10-21T20:32:44.187Z,14.70
2022-10-21T20:35:13.372Z,14.70
2022-10-21T20:37:43.542Z,14.80
2022-10-21T20:40:20.418Z,14.80
2022-10-21T20:42:49.952Z,14.80
2022-10-21T20:48:13.195Z,14.90
2022-10-21T20:50:42.979Z,15.00
2022-10-21T20:53:12.175Z,14.90
2022-10-21T20:55:46.793Z,15.00
2022-10-21T20:58:18.547Z,15.10
2022-10-21T21:00:49.846Z,15.20
2022-10-21T21:03:19.708Z,15.20
2022-10-21T21:05:52.237Z,15.20
2022-10-21T21:08:21.398Z,15.30
2022-10-21T21:10:52.330Z,15.40
2022-10-21T21:13:21.130Z,15.40
2022-10-21T21:15:51.208Z,15.40
2022-10-21T21:18:22.084Z,15.40
2022-10-21T21:20:51.194Z,15.40
2022-10-21T21:23:23.424Z,15.40
2022-10-21T21:25:56.151Z,15.40
2022-10-21T21:28:43.382Z,15.50
2022-10-21T21:31:13.947Z,15.50
2022-10-21T21:33:45.618Z,15.50
2022-10-21T21:36:16.329Z,15.50
2022-10-21T21:38:47.088Z,15.40
2022-10-21T21:41:20.017Z,15.50
2022-10-21T21:43:54.352Z,15.50
2022-10-21T21:46:24.966Z,15.50
2022-10-21T21:48:59.563Z,15.50
2022-10-21T21:51:32.404Z,15.50
2022-10-21T21:54:03.814Z,15.60
2022-10-21T21:56:34.741Z,15.60
2022-10-21T21:59:05.832Z,15.60
2022-10-21T22:01:37.920Z,15.60
2022-10-21T22:04:09.050Z,15.60
2022-10-21T22:06:39.311Z,15.60
2022-10-21T22:09:12.322Z,15.60
2022-10-21T22:11:43.450Z,15.60
2022-10-21T22:14:13.469Z,15.70
2022-10-21T22:16:46.659Z,15.70
2022-10-21T22:19:17.970Z,15.70
2022-10-21T22:21:49.950Z,15.70
2022-10-21T22:24:19.490Z,15.70
2022-10-21T22:26:52.260Z,15.60
2022-10-21T22:29:23.984Z,15.60
2022-10-21T22:31:55.210Z,15.60
2022-10-21T22:34:25.480Z,15.50
2022-10-21T22:36:56.428Z,15.50
2022-10-21T22:39:28.952Z,15.50
2022-10-21T22:42:04.160Z,15.40
2022-10-21T22:44:36.589Z,15.40
2022-10-21T22:47:05.211Z,15.40
2022-10-21T22:49:37.414Z,15.40
2022-10-21T22:52:07.301Z,15.40
2022-10-21T22:54:49.105Z,15.50
2022-10-21T22:57:21.756Z,15.50
2022-10-21T22:59:53.425Z,15.50
2022-10-21T23:02:23.561Z,15.50
2022-10-21T23:04:54.360Z,15.50
2022-10-21T23:07:24.030Z,15.50
2022-10-21T23:09:55.386Z,15.50
2022-10-21T23:12:27.020Z,15.50
2022-10-21T23:14:56.392Z,15.60
2022-10-21T23:18:27.060Z,15.60
2022-10-21T23:20:57.728Z,15.60
2022-10-21T23:23:29.380Z,15.60
2022-10-21T23:25:59.209Z,15.70
2022-10-21T23:28:29.819Z,15.70
2022-10-21T23:31:02.111Z,15.70
2022-10-21T23:33:30.850Z,15.70
2022-10-21T23:36:03.400Z,15.70
2022-10-21T23:41:15.951Z,15.70
2022-10-21T23:43:47.895Z,15.60
2022-10-21T23:46:18.148Z,15.60
2022-10-21T23:48:49.322Z,15.70
2022-10-21T23:51:21.436Z,15.70
2022-10-21T23:53:52.438Z,15.70
2022-10-21T23:56:23.415Z,15.70
2022-10-21T23:58:57.839Z,15.70
